<?xml version='1.0' encoding='UTF-8'?><gpx version="1.1" creator="JPX - https://github.com/jenetics/jpx" xmlns="http://www.topografix.com/GPX/1/1"><trk><trkseg><trkpt lat="43.89860743717381" lon="11.317065761216476"><ele>569.0</ele><time>2026-05-01T16:36:36.958Z</time></trkpt><trkpt lat="43.898490175702676" lon="11.317248646318669"><ele>569.0</ele><time>2026-05-01T16:36:42.955Z</time></trkpt><trkpt lat="43.898765655476424" lon="11.316942840404113"><ele>569.0</ele><time>2026-05-01T16:37:29.949Z</time></trkpt><trkpt lat="43.898593627704855" lon="11.317102920828432"><ele>569.0</ele><time>2026-05-01T16:39:25.967Z</time></trkpt><trkpt lat="43.89852793447493" lon="11.31727349931269"><ele>569.0</ele><time>2026-05-01T16:39:31.969Z</time></trkpt><trkpt lat="43.89819019741537" lon="11.317731553995275"><ele>573.0</ele><time>2026-05-01T16:40:01.96Z</time></trkpt><trkpt lat="43.89778995680707" lon="11.318258720929437"><ele>576.5</ele><time>2026-05-01T16:40:07.943Z</time></trkpt><trkpt lat="43.89755793859805" lon="11.318449936931733"><ele>580.0</ele><time>2026-05-01T16:40:09.309Z</time></trkpt><trkpt lat="43.89693100600917" lon="11.320136329358277"><ele>589.0</ele><time>2026-05-01T16:40:30.967Z</time></trkpt><trkpt lat="43.89633520277151" lon="11.320924838334568"><ele>589.0</ele><time>2026-05-01T16:40:36.972Z</time></trkpt><trkpt lat="43.89618333792295" lon="11.32111323913133"><ele>589.0</ele><time>2026-05-01T16:40:43.051Z</time></trkpt><trkpt lat="43.89617258790104" lon="11.321284634359472"><ele>589.0</ele><time>2026-05-01T16:40:48.969Z</time></trkpt><trkpt lat="43.89611268166871" lon="11.321928849975363"><ele>591.3333333333334</ele><time>2026-05-01T16:40:54.972Z</time></trkpt><trkpt lat="43.89606241495389" lon="11.3222137843356"><ele>593.6666666666666</ele><time>2026-05-01T16:41:00.97Z</time></trkpt><trkpt lat="43.89597245971239" lon="11.322274037125664"><ele>596.0</ele><time>2026-05-01T16:41:07.185Z</time></trkpt><trkpt lat="43.89527762013344" lon="11.323631709386284"><ele>624.0</ele><time>2026-05-01T16:41:18.963Z</time></trkpt><trkpt lat="43.89455507446956" lon="11.324305841465893"><ele>624.0</ele><time>2026-05-01T16:41:24.959Z</time></trkpt><trkpt lat="43.894348371965464" lon="11.32437112177146"><ele>624.0</ele><time>2026-05-01T16:41:31.365Z</time></trkpt><trkpt lat="43.89407419778934" lon="11.324661189712636"><ele>628.3333333333334</ele><time>2026-05-01T16:41:39.044Z</time></trkpt><trkpt lat="43.893989693425084" lon="11.325133508600082"><ele>632.6666666666667</ele><time>2026-05-01T16:41:46.769Z</time></trkpt><trkpt lat="43.89397373978082" lon="11.32523801830691"><ele>637.0</ele><time>2026-05-01T16:41:48.079Z</time></trkpt><trkpt lat="43.89452286891535" lon="11.328240442297652"><ele>648.0</ele><time>2026-05-01T16:42:47.209Z</time></trkpt><trkpt lat="43.89456780829866" lon="11.328496497786743"><ele>659.0</ele><time>2026-05-01T16:42:48.447Z</time></trkpt><trkpt lat="43.88435567823882" lon="11.33364362494085"><ele>585.0</ele><time>2026-05-01T16:47:52.989Z</time></trkpt><trkpt lat="43.87546333562657" lon="11.334059245963337"><ele>585.0</ele><time>2026-05-01T16:49:50.562Z</time></trkpt><trkpt lat="43.875395227536586" lon="11.334199379026968"><ele>585.0</ele><time>2026-05-01T16:49:52.559Z</time></trkpt><trkpt lat="43.87531815408934" lon="11.334324027921939"><ele>585.0</ele><time>2026-05-01T16:49:54.56Z</time></trkpt><trkpt lat="43.87525510574681" lon="11.334399667803059"><ele>585.0</ele><time>2026-05-01T16:49:55.559Z</time></trkpt><trkpt lat="43.87519996387151" lon="11.334487239471713"><ele>585.0</ele><time>2026-05-01T16:49:56.561Z</time></trkpt><trkpt lat="43.87514557480946" lon="11.334539153285746"><ele>582.0</ele><time>2026-05-01T16:49:57.561Z</time></trkpt><trkpt lat="43.87463279194007" lon="11.334610328145745"><ele>581.8000000000001</ele><time>2026-05-01T16:50:02.562Z</time></trkpt><trkpt lat="43.87456807753325" lon="11.334729709659074"><ele>581.6</ele><time>2026-05-01T16:50:04.559Z</time></trkpt><trkpt lat="43.87455561672323" lon="11.334854498812003"><ele>581.4000000000001</ele><time>2026-05-01T16:50:05.563Z</time></trkpt><trkpt lat="43.87448937658979" lon="11.334928908129623"><ele>581.2</ele><time>2026-05-01T16:50:06.56Z</time></trkpt><trkpt lat="43.87440804218382" lon="11.335032824294718"><ele>581.0</ele><time>2026-05-01T16:50:07.562Z</time></trkpt><trkpt lat="43.87433042798566" lon="11.335117782333164"><ele>581.0</ele><time>2026-05-01T16:50:09.556Z</time></trkpt><trkpt lat="43.8742833049741" lon="11.335205931571899"><ele>581.0</ele><time>2026-05-01T16:50:10.561Z</time></trkpt><trkpt lat="43.87422267348041" lon="11.335319346730989"><ele>581.0</ele><time>2026-05-01T16:50:11.564Z</time></trkpt><trkpt lat="43.87416787017886" lon="11.335432717863092"><ele>581.0</ele><time>2026-05-01T16:50:12.557Z</time></trkpt><trkpt lat="43.87409835188617" lon="11.335561300864411"><ele>581.0</ele><time>2026-05-01T16:50:13.564Z</time></trkpt><trkpt lat="43.874036835931385" lon="11.33568446106303"><ele>581.75</ele><time>2026-05-01T16:50:14.561Z</time></trkpt><trkpt lat="43.873941607541106" lon="11.335844339115294"><ele>582.5</ele><time>2026-05-01T16:50:15.565Z</time></trkpt><trkpt lat="43.873812705365744" lon="11.335983557163695"><ele>583.25</ele><time>2026-05-01T16:50:16.555Z</time></trkpt><trkpt lat="43.87370042842929" lon="11.336074821356979"><ele>584.0</ele><time>2026-05-01T16:50:17.563Z</time></trkpt><trkpt lat="43.873617364877695" lon="11.336121337404075"><ele>584.0</ele><time>2026-05-01T16:50:18.554Z</time></trkpt><trkpt lat="43.873529943192175" lon="11.336168546189997"><ele>584.0</ele><time>2026-05-01T16:50:19.565Z</time></trkpt><trkpt lat="43.87339963339604" lon="11.336259112697547"><ele>584.0</ele><time>2026-05-01T16:50:21.564Z</time></trkpt><trkpt lat="43.87322656146934" lon="11.33633063972015"><ele>584.0</ele><time>2026-05-01T16:50:22.56Z</time></trkpt><trkpt lat="43.87312276652534" lon="11.336359438921834"><ele>582.75</ele><time>2026-05-01T16:50:23.561Z</time></trkpt><trkpt lat="43.873041084742276" lon="11.336413795084438"><ele>581.5</ele><time>2026-05-01T16:50:24.558Z</time></trkpt><trkpt lat="43.87292595629228" lon="11.336441564900307"><ele>580.25</ele><time>2026-05-01T16:50:25.56Z</time></trkpt><trkpt lat="43.87276938765601" lon="11.336435504169676"><ele>579.0</ele><time>2026-05-01T16:50:26.56Z</time></trkpt><trkpt lat="43.87261385055241" lon="11.336397296273777"><ele>579.0</ele><time>2026-05-01T16:50:27.564Z</time></trkpt><trkpt lat="43.872473606753054" lon="11.336350177548923"><ele>579.0</ele><time>2026-05-01T16:50:28.558Z</time></trkpt><trkpt lat="43.87234584813987" lon="11.336389791944564"><ele>579.0</ele><time>2026-05-01T16:50:29.559Z</time></trkpt><trkpt lat="43.87224378667431" lon="11.336429520143636"><ele>579.0</ele><time>2026-05-01T16:50:30.559Z</time></trkpt><trkpt lat="43.87213579890517" lon="11.336454779184539"><ele>579.0</ele><time>2026-05-01T16:50:31.565Z</time></trkpt><trkpt lat="43.87203136875572" lon="11.336463536819085"><ele>579.0</ele><time>2026-05-01T16:50:32.553Z</time></trkpt><trkpt lat="43.8719185292774" lon="11.336494553327384"><ele>579.0</ele><time>2026-05-01T16:50:33.563Z</time></trkpt><trkpt lat="43.87180922167098" lon="11.336550525144542"><ele>579.0</ele><time>2026-05-01T16:50:34.553Z</time></trkpt><trkpt lat="43.87171953764887" lon="11.336592879739145"><ele>579.0</ele><time>2026-05-01T16:50:35.554Z</time></trkpt><trkpt lat="43.87161268991332" lon="11.336635937828415"><ele>578.25</ele><time>2026-05-01T16:50:36.555Z</time></trkpt><trkpt lat="43.87147765952919" lon="11.336712312123137"><ele>577.5</ele><time>2026-05-01T16:50:37.563Z</time></trkpt><trkpt lat="43.871370298917924" lon="11.336785947606963"><ele>576.75</ele><time>2026-05-01T16:50:38.561Z</time></trkpt><trkpt lat="43.871256827026514" lon="11.336866835363578"><ele>576.0</ele><time>2026-05-01T16:50:39.563Z</time></trkpt><trkpt lat="43.87114762445351" lon="11.336935056234033"><ele>576.0</ele><time>2026-05-01T16:50:40.56Z</time></trkpt><trkpt lat="43.87104544853766" lon="11.337008033120592"><ele>576.0</ele><time>2026-05-01T16:50:41.562Z</time></trkpt><trkpt lat="43.870903702172214" lon="11.33708877416089"><ele>576.0</ele><time>2026-05-01T16:50:42.557Z</time></trkpt><trkpt lat="43.870801498347724" lon="11.337197944474644"><ele>576.0</ele><time>2026-05-01T16:50:43.563Z</time></trkpt><trkpt lat="43.87067105372739" lon="11.337290175140716"><ele>576.8</ele><time>2026-05-01T16:50:44.561Z</time></trkpt><trkpt lat="43.87056036732049" lon="11.337361469527297"><ele>577.6</ele><time>2026-05-01T16:50:45.554Z</time></trkpt><trkpt lat="43.87047572053344" lon="11.337415739586389"><ele>578.4</ele><time>2026-05-01T16:50:46.56Z</time></trkpt><trkpt lat="43.87042130759204" lon="11.337483486534103"><ele>579.2</ele><time>2026-05-01T16:50:48.556Z</time></trkpt><trkpt lat="43.87050116396958" lon="11.337372216446838"><ele>580.0</ele><time>2026-05-01T16:50:50.562Z</time></trkpt><trkpt lat="43.87062240819531" lon="11.337244614685966"><ele>579.0</ele><time>2026-05-01T16:50:51.562Z</time></trkpt><trkpt lat="43.870695889916156" lon="11.337178389682554"><ele>578.0</ele><time>2026-05-01T16:50:52.56Z</time></trkpt><trkpt lat="43.87075940217902" lon="11.33713948380458"><ele>577.0</ele><time>2026-05-01T16:50:54.553Z</time></trkpt><trkpt lat="43.87092062084316" lon="11.337068673847769"><ele>576.0</ele><time>2026-05-01T16:50:55.561Z</time></trkpt><trkpt lat="43.87120861545044" lon="11.336883116048604"><ele>576.0</ele><time>2026-05-01T16:50:56.561Z</time></trkpt><trkpt lat="43.87138634856182" lon="11.336775864434733"><ele>576.0</ele><time>2026-05-01T16:50:57.558Z</time></trkpt><trkpt lat="43.871519395908116" lon="11.336674079026468"><ele>576.0</ele><time>2026-05-01T16:50:58.563Z</time></trkpt><trkpt lat="43.8716002097276" lon="11.336704413529405"><ele>576.0</ele><time>2026-05-01T16:50:59.555Z</time></trkpt><trkpt lat="43.87168505811664" lon="11.336684190676241"><ele>576.0</ele><time>2026-05-01T16:51:00.558Z</time></trkpt><trkpt lat="43.87175863500973" lon="11.33665411273009"><ele>576.0</ele><time>2026-05-01T16:51:01.555Z</time></trkpt><trkpt lat="43.87186728960713" lon="11.336600629744368"><ele>576.0</ele><time>2026-05-01T16:51:02.556Z</time></trkpt><trkpt lat="43.8720170000833" lon="11.336528492266355"><ele>576.0</ele><time>2026-05-01T16:51:03.555Z</time></trkpt><trkpt lat="43.87216054984646" lon="11.336464724880194"><ele>576.5</ele><time>2026-05-01T16:51:04.555Z</time></trkpt><trkpt lat="43.8722794444005" lon="11.3364324352739"><ele>577.0</ele><time>2026-05-01T16:51:05.557Z</time></trkpt><trkpt lat="43.87238088560859" lon="11.336480457026608"><ele>577.5</ele><time>2026-05-01T16:51:06.562Z</time></trkpt><trkpt lat="43.87252951588505" lon="11.336364853099713"><ele>578.0</ele><time>2026-05-01T16:51:07.559Z</time></trkpt><trkpt lat="43.87261807883096" lon="11.336351898000917"><ele>578.1666666666666</ele><time>2026-05-01T16:51:08.56Z</time></trkpt><trkpt lat="43.87269737010403" lon="11.33636064715822"><ele>578.3333333333333</ele><time>2026-05-01T16:51:09.559Z</time></trkpt><trkpt lat="43.8727632613903" lon="11.336362779818101"><ele>578.5</ele><time>2026-05-01T16:51:10.561Z</time></trkpt><trkpt lat="43.87282260971972" lon="11.336415081584693"><ele>578.6666666666666</ele><time>2026-05-01T16:51:12.558Z</time></trkpt><trkpt lat="43.872767370278595" lon="11.336372086972325"><ele>578.8333333333334</ele><time>2026-05-01T16:51:13.559Z</time></trkpt><trkpt lat="43.872655328423214" lon="11.33637825660025"><ele>579.0</ele><time>2026-05-01T16:51:16.559Z</time></trkpt><trkpt lat="43.87253521318298" lon="11.336419845812513"><ele>579.0</ele><time>2026-05-01T16:51:18.562Z</time></trkpt><trkpt lat="43.872443736314125" lon="11.33646471258104"><ele>579.0</ele><time>2026-05-01T16:51:20.559Z</time></trkpt><trkpt lat="43.872303740973386" lon="11.336510195785827"><ele>579.0</ele><time>2026-05-01T16:51:22.56Z</time></trkpt><trkpt lat="43.872215652261566" lon="11.33654125561451"><ele>579.0</ele><time>2026-05-01T16:51:23.56Z</time></trkpt><trkpt lat="43.87206380685214" lon="11.336585574967689"><ele>579.0</ele><time>2026-05-01T16:51:24.559Z</time></trkpt><trkpt lat="43.87189149952428" lon="11.336666677267736"><ele>579.0</ele><time>2026-05-01T16:51:26.56Z</time></trkpt><trkpt lat="43.871821552225725" lon="11.33669346601255"><ele>579.0</ele><time>2026-05-01T16:51:27.56Z</time></trkpt><trkpt lat="43.87173690341345" lon="11.33670767541992"><ele>579.0</ele><time>2026-05-01T16:51:28.558Z</time></trkpt><trkpt lat="43.871591592102305" lon="11.336700352142147"><ele>578.4</ele><time>2026-05-01T16:51:29.562Z</time></trkpt><trkpt lat="43.871467768707255" lon="11.336696369562185"><ele>577.8</ele><time>2026-05-01T16:51:30.564Z</time></trkpt><trkpt lat="43.87133482938351" lon="11.33669033959599"><ele>577.2</ele><time>2026-05-01T16:51:32.56Z</time></trkpt><trkpt lat="43.87122563603811" lon="11.336723018692176"><ele>576.6</ele><time>2026-05-01T16:51:34.564Z</time></trkpt><trkpt lat="43.87116775340554" lon="11.33678140584576"><ele>576.0</ele><time>2026-05-01T16:51:35.563Z</time></trkpt><trkpt lat="43.87110898346297" lon="11.336853114004741"><ele>576.0</ele><time>2026-05-01T16:51:36.554Z</time></trkpt><trkpt lat="43.87101598177253" lon="11.336905036636528"><ele>576.0</ele><time>2026-05-01T16:51:37.557Z</time></trkpt><trkpt lat="43.870882015500165" lon="11.336992659801789"><ele>576.0</ele><time>2026-05-01T16:51:38.561Z</time></trkpt><trkpt lat="43.870815490826224" lon="11.337128121766344"><ele>576.0</ele><time>2026-05-01T16:51:39.563Z</time></trkpt><trkpt lat="43.87073349010309" lon="11.337235576002813"><ele>577.0</ele><time>2026-05-01T16:51:40.56Z</time></trkpt><trkpt lat="43.870627033123434" lon="11.337357820552748"><ele>578.0</ele><time>2026-05-01T16:51:41.562Z</time></trkpt><trkpt lat="43.870476034599584" lon="11.337432420839145"><ele>579.0</ele><time>2026-05-01T16:51:42.563Z</time></trkpt><trkpt lat="43.87036524097626" lon="11.337495616099021"><ele>580.0</ele><time>2026-05-01T16:51:43.561Z</time></trkpt><trkpt lat="43.870273079024784" lon="11.337569586097683"><ele>580.0</ele><time>2026-05-01T16:51:44.555Z</time></trkpt><trkpt lat="43.870241586649065" lon="11.337680783844409"><ele>580.0</ele><time>2026-05-01T16:51:45.563Z</time></trkpt><trkpt lat="43.87016845759084" lon="11.337784399915003"><ele>580.0</ele><time>2026-05-01T16:51:46.555Z</time></trkpt><trkpt lat="43.87010597615609" lon="11.337874656276748"><ele>580.0</ele><time>2026-05-01T16:51:47.563Z</time></trkpt><trkpt lat="43.87005776267409" lon="11.337941456578205"><ele>580.0</ele><time>2026-05-01T16:51:48.559Z</time></trkpt><trkpt lat="43.869992331919256" lon="11.338074882528158"><ele>581.0</ele><time>2026-05-01T16:51:50.562Z</time></trkpt><trkpt lat="43.87000640843475" lon="11.338194657705706"><ele>582.0</ele><time>2026-05-01T16:51:52.556Z</time></trkpt><trkpt lat="43.86995811588446" lon="11.33830435640034"><ele>583.0</ele><time>2026-05-01T16:51:55.561Z</time></trkpt><trkpt lat="43.869902035267806" lon="11.33835581332676"><ele>584.0</ele><time>2026-05-01T16:51:57.563Z</time></trkpt><trkpt lat="43.869811848459385" lon="11.338344310472367"><ele>585.0</ele><time>2026-05-01T16:51:58.562Z</time></trkpt><trkpt lat="43.869724146893596" lon="11.338358750482092"><ele>586.0</ele><time>2026-05-01T16:51:59.56Z</time></trkpt><trkpt lat="43.87013935953739" lon="11.338077457632254"><ele>586.0</ele><time>2026-05-01T16:52:07.561Z</time></trkpt><trkpt lat="43.86978127983157" lon="11.338168451290253"><ele>586.0</ele><time>2026-05-01T16:52:14.636Z</time></trkpt><trkpt lat="43.86760492347541" lon="11.341357128705216"><ele>574.0</ele><time>2026-05-01T16:53:17.562Z</time></trkpt><trkpt lat="43.8673490075904" lon="11.341376739882138"><ele>562.0</ele><time>2026-05-01T16:53:19.562Z</time></trkpt><trkpt lat="43.867236528529695" lon="11.34137519124915"><ele>550.0</ele><time>2026-05-01T16:53:23.56Z</time></trkpt><trkpt lat="43.867035558518324" lon="11.341500194648157"><ele>547.8</ele><time>2026-05-01T16:53:24.561Z</time></trkpt><trkpt lat="43.86693380995908" lon="11.34147571996237"><ele>545.6</ele><time>2026-05-01T16:53:25.557Z</time></trkpt><trkpt lat="43.866817163699714" lon="11.341510562512958"><ele>543.4</ele><time>2026-05-01T16:53:26.562Z</time></trkpt><trkpt lat="43.86671123256987" lon="11.341536967365714"><ele>541.2</ele><time>2026-05-01T16:53:27.562Z</time></trkpt><trkpt lat="43.86661670061991" lon="11.341548083342037"><ele>539.0</ele><time>2026-05-01T16:53:28.559Z</time></trkpt><trkpt lat="43.86653220026097" lon="11.341543331261713"><ele>537.5</ele><time>2026-05-01T16:53:29.564Z</time></trkpt><trkpt lat="43.866466331437785" lon="11.3415422402398"><ele>536.0</ele><time>2026-05-01T16:53:30.555Z</time></trkpt><trkpt lat="43.86639946390811" lon="11.34152861599733"><ele>534.5</ele><time>2026-05-01T16:53:31.564Z</time></trkpt><trkpt lat="43.86633423443949" lon="11.341520340461742"><ele>533.0</ele><time>2026-05-01T16:53:32.559Z</time></trkpt><trkpt lat="43.86623569716498" lon="11.341513873534124"><ele>531.5</ele><time>2026-05-01T16:53:33.556Z</time></trkpt><trkpt lat="43.86613940119661" lon="11.341484245871715"><ele>530.0</ele><time>2026-05-01T16:53:34.561Z</time></trkpt><trkpt lat="43.86607747377124" lon="11.341437160328763"><ele>530.0</ele><time>2026-05-01T16:53:35.562Z</time></trkpt><trkpt lat="43.866009415702976" lon="11.341425464123098"><ele>530.0</ele><time>2026-05-01T16:53:36.558Z</time></trkpt><trkpt lat="43.86590848610637" lon="11.341374644763366"><ele>526.0</ele><time>2026-05-01T16:53:38.554Z</time></trkpt><trkpt lat="43.865798717913606" lon="11.34134991937379"><ele>526.0</ele><time>2026-05-01T16:53:41.563Z</time></trkpt></trkseg></trk></gpx>